sensor_id;sensor_type;location;lat;lon;timestamp;pressure;altitude;pressure_sealevel;temperature;humidity
71948;BME280;63257;55.082;38.772;2023-06-10T00:00:52;100245.63;;;12.77;62.44
71948;BME280;63257;55.082;38.772;2023-06-10T00:03:18;100250.69;;;12.82;62.33
71948;BME280;63257;55.082;38.772;2023-06-10T00:05:44;100227.63;;;12.68;61.89
71948;BME280;63257;55.082;38.772;2023-06-10T00:08:10;100219.63;;;12.53;61.28
71948;BME280;63257;55.082;38.772;2023-06-10T00:10:38;100243.59;;;12.66;60.36
71948;BME280;63257;55.082;38.772;2023-06-10T00:13:06;100227.22;;;12.60;60.62
71948;BME280;63257;55.082;38.772;2023-06-10T00:15:35;100234.81;;;12.66;60.40
71948;BME280;63257;55.082;38.772;2023-06-10T00:18:02;100234.72;;;12.67;60.31
71948;BME280;63257;55.082;38.772;2023-06-10T00:20:30;100234.53;;;12.70;59.98
71948;BME280;63257;55.082;38.772;2023-06-10T00:22:58;100221.06;;;12.59;60.26
71948;BME280;63257;55.082;38.772;2023-06-10T00:25:45;100233.28;;;12.62;60.42
71948;BME280;63257;55.082;38.772;2023-06-10T00:28:11;100231.94;;;12.54;60.65
71948;BME280;63257;55.082;38.772;2023-06-10T00:30:37;100215.72;;;12.45;60.17
71948;BME280;63257;55.082;38.772;2023-06-10T00:33:03;100232.03;;;12.53;60.17
71948;BME280;63257;55.082;38.772;2023-06-10T00:35:29;100229.63;;;12.48;60.39
71948;BME280;63257;55.082;38.772;2023-06-10T00:37:54;100228.69;;;12.49;59.76
71948;BME280;63257;55.082;38.772;2023-06-10T00:40:20;100224.84;;;12.55;59.74
71948;BME280;63257;55.082;38.772;2023-06-10T00:42:46;100244.72;;;12.62;59.56
71948;BME280;63257;55.082;38.772;2023-06-10T00:45:12;100236.63;;;12.65;60.15
71948;BME280;63257;55.082;38.772;2023-06-10T00:47:38;100239.19;;;12.67;59.00
71948;BME280;63257;55.082;38.772;2023-06-10T00:50:05;100214.84;;;12.60;60.27
71948;BME280;63257;55.082;38.772;2023-06-10T00:52:32;100233.97;;;12.65;59.19
71948;BME280;63257;55.082;38.772;2023-06-10T00:54:59;100244.97;;;12.73;58.77
71948;BME280;63257;55.082;38.772;2023-06-10T00:57:25;100236.53;;;12.67;58.92
71948;BME280;63257;55.082;38.772;2023-06-10T00:59:52;100254.28;;;12.81;59.04
71948;BME280;63257;55.082;38.772;2023-06-10T01:02:18;100258.69;;;12.80;59.37
71948;BME280;63257;55.082;38.772;2023-06-10T01:04:44;100257.25;;;12.75;57.92
71948;BME280;63257;55.082;38.772;2023-06-10T01:07:17;100257.72;;;12.67;58.23
71948;BME280;63257;55.082;38.772;2023-06-10T01:12:45;100269.09;;;12.53;58.82
71948;BME280;63257;55.082;38.772;2023-06-10T01:15:17;100252.94;;;12.42;58.62
71948;BME280;63257;55.082;38.772;2023-06-10T01:24:41;100269.56;;;12.60;58.39
71948;BME280;63257;55.082;38.772;2023-06-10T01:27:12;100266.94;;;12.60;57.67
71948;BME280;63257;55.082;38.772;2023-06-10T01:29:44;100275.06;;;12.56;58.63
71948;BME280;63257;55.082;38.772;2023-06-10T01:32:26;100265.06;;;12.46;57.93
71948;BME280;63257;55.082;38.772;2023-06-10T01:34:54;100291.38;;;12.49;57.83
71948;BME280;63257;55.082;38.772;2023-06-10T01:37:21;100288.97;;;12.44;57.74
71948;BME280;63257;55.082;38.772;2023-06-10T01:39:50;100283.16;;;12.37;58.27
71948;BME280;63257;55.082;38.772;2023-06-10T01:42:17;100286.50;;;12.41;58.59
71948;BME280;63257;55.082;38.772;2023-06-10T01:44:43;100287.53;;;12.38;57.42
71948;BME280;63257;55.082;38.772;2023-06-10T01:47:09;100296.84;;;12.30;57.81
71948;BME280;63257;55.082;38.772;2023-06-10T01:49:35;100289.94;;;12.27;57.83
71948;BME280;63257;55.082;38.772;2023-06-10T01:52:01;100293.31;;;12.29;57.51
71948;BME280;63257;55.082;38.772;2023-06-10T01:54:27;100273.00;;;12.14;57.05
71948;BME280;63257;55.082;38.772;2023-06-10T01:56:53;100307.66;;;12.25;57.48
71948;BME280;63257;55.082;38.772;2023-06-10T01:59:19;100293.50;;;12.26;57.43
71948;BME280;63257;55.082;38.772;2023-06-10T02:01:45;100300.50;;;12.27;57.43
71948;BME280;63257;55.082;38.772;2023-06-10T02:04:11;100304.44;;;12.36;57.37
71948;BME280;63257;55.082;38.772;2023-06-10T02:06:36;100308.44;;;12.43;56.51
71948;BME280;63257;55.082;38.772;2023-06-10T02:09:03;100305.03;;;12.41;56.99
71948;BME280;63257;55.082;38.772;2023-06-10T02:11:29;100312.63;;;12.47;56.52
71948;BME280;63257;55.082;38.772;2023-06-10T02:13:55;100293.75;;;12.37;56.42
71948;BME280;63257;55.082;38.772;2023-06-10T02:20:33;100317.84;;;12.65;56.07
71948;BME280;63257;55.082;38.772;2023-06-10T02:22:59;100336.38;;;12.81;56.55
71948;BME280;63257;55.082;38.772;2023-06-10T02:25:25;100327.84;;;12.60;56.06
71948;BME280;63257;55.082;38.772;2023-06-10T02:27:51;100346.13;;;12.64;55.92
71948;BME280;63257;55.082;38.772;2023-06-10T02:30:17;100353.06;;;12.67;56.22
71948;BME280;63257;55.082;38.772;2023-06-10T02:32:44;100360.22;;;12.65;55.54
71948;BME280;63257;55.082;38.772;2023-06-10T02:35:15;100350.56;;;12.64;55.55
71948;BME280;63257;55.082;38.772;2023-06-10T02:37:41;100354.31;;;12.76;55.75
71948;BME280;63257;55.082;38.772;2023-06-10T02:40:08;100349.28;;;12.71;56.15
71948;BME280;63257;55.082;38.772;2023-06-10T02:42:37;100349.63;;;12.65;55.05
71948;BME280;63257;55.082;38.772;2023-06-10T02:45:04;100354.31;;;12.76;55.83
71948;BME280;63257;55.082;38.772;2023-06-10T02:47:38;100376.78;;;12.84;55.32
71948;BME280;63257;55.082;38.772;2023-06-10T02:50:06;100374.22;;;12.83;55.64
71948;BME280;63257;55.082;38.772;2023-06-10T02:52:37;100380.13;;;12.88;54.72
71948;BME280;63257;55.082;38.772;2023-06-10T02:55:04;100337.31;;;12.64;54.76
71948;BME280;63257;55.082;38.772;2023-06-10T02:57:30;100365.06;;;12.88;55.27
71948;BME280;63257;55.082;38.772;2023-06-10T02:59:56;100355.25;;;12.90;55.05
71948;BME280;63257;55.082;38.772;2023-06-10T03:02:24;100374.41;;;12.96;54.86
71948;BME280;63257;55.082;38.772;2023-06-10T03:04:55;100373.13;;;12.87;54.61
71948;BME280;63257;55.082;38.772;2023-06-10T03:07:22;100367.22;;;12.98;55.13
71948;BME280;63257;55.082;38.772;2023-06-10T03:09:50;100350.47;;;12.97;54.35
71948;BME280;63257;55.082;38.772;2023-06-10T03:12:16;100367.13;;;13.15;55.12
71948;BME280;63257;55.082;38.772;2023-06-10T03:14:46;100359.19;;;13.30;54.32
71948;BME280;63257;55.082;38.772;2023-06-10T03:17:12;100361.44;;;13.21;53.59
71948;BME280;63257;55.082;38.772;2023-06-10T03:19:41;100359.69;;;13.06;54.48
71948;BME280;63257;55.082;38.772;2023-06-10T03:22:11;100358.66;;;12.93;54.85
71948;BME280;63257;55.082;38.772;2023-06-10T03:24:42;100357.56;;;12.97;54.89
71948;BME280;63257;55.082;38.772;2023-06-10T03:27:10;100356.94;;;13.07;54.93
71948;BME280;63257;55.082;38.772;2023-06-10T03:29:38;100349.06;;;13.22;54.82
71948;BME280;63257;55.082;38.772;2023-06-10T03:32:05;100340.94;;;13.25;54.38
71948;BME280;63257;55.082;38.772;2023-06-10T03:34:32;100354.75;;;13.46;54.35
71948;BME280;63257;55.082;38.772;2023-06-10T03:36:59;100339.13;;;13.42;53.91
71948;BME280;63257;55.082;38.772;2023-06-10T03:39:25;100358.94;;;13.50;54.48
71948;BME280;63257;55.082;38.772;2023-06-10T03:41:56;100374.78;;;13.52;53.97
71948;BME280;63257;55.082;38.772;2023-06-10T03:44:27;100362.88;;;13.43;54.73
71948;BME280;63257;55.082;38.772;2023-06-10T03:46:54;100381.44;;;13.43;54.72
71948;BME280;63257;55.082;38.772;2023-06-10T03:49:21;100372.72;;;13.25;54.46
71948;BME280;63257;55.082;38.772;2023-06-10T03:51:51;100365.06;;;13.20;55.29
71948;BME280;63257;55.082;38.772;2023-06-10T03:54:17;100355.03;;;13.26;55.83
71948;BME280;63257;55.082;38.772;2023-06-10T03:56:43;100359.50;;;13.55;55.16
71948;BME280;63257;55.082;38.772;2023-06-10T03:59:09;100365.28;;;13.48;54.85
71948;BME280;63257;55.082;38.772;2023-06-10T04:01:35;100383.25;;;13.27;55.35
71948;BME280;63257;55.082;38.772;2023-06-10T04:04:03;100382.31;;;13.28;55.16
71948;BME280;63257;55.082;38.772;2023-06-10T04:06:33;100366.19;;;13.16;56.05
71948;BME280;63257;55.082;38.772;2023-06-10T04:08:59;100393.50;;;13.33;56.12
71948;BME280;63257;55.082;38.772;2023-06-10T04:11:27;100375.38;;;13.25;55.63
71948;BME280;63257;55.082;38.772;2023-06-10T04:13:54;100379.53;;;13.15;55.28
71948;BME280;63257;55.082;38.772;2023-06-10T04:16:20;100390.47;;;13.09;56.08
71948;BME280;63257;55.082;38.772;2023-06-10T04:18:47;100375.00;;;12.69;56.75
71948;BME280;63257;55.082;38.772;2023-06-10T04:21:14;100382.53;;;12.77;56.40
71948;BME280;63257;55.082;38.772;2023-06-10T04:23:40;100402.53;;;12.98;56.35
71948;BME280;63257;55.082;38.772;2023-06-10T04:26:07;100393.63;;;13.15;55.77
71948;BME280;63257;55.082;38.772;2023-06-10T04:28:33;100401.91;;;13.09;55.62
71948;BME280;63257;55.082;38.772;2023-06-10T04:30:59;100386.78;;;13.27;56.20
71948;BME280;63257;55.082;38.772;2023-06-10T04:33:26;100383.00;;;13.31;55.08
71948;BME280;63257;55.082;38.772;2023-06-10T04:35:54;100402.22;;;13.35;55.25
71948;BME280;63257;55.082;38.772;2023-06-10T04:38:22;100401.81;;;13.43;55.07
71948;BME280;63257;55.082;38.772;2023-06-10T04:40:48;100357.97;;;13.05;55.17
71948;BME280;63257;55.082;38.772;2023-06-10T04:43:15;100407.09;;;13.27;54.73
71948;BME280;63257;55.082;38.772;2023-06-10T04:45:44;100405.69;;;13.37;55.18
71948;BME280;63257;55.082;38.772;2023-06-10T04:48:11;100412.94;;;13.49;55.11
71948;BME280;63257;55.082;38.772;2023-06-10T04:50:37;100420.09;;;13.47;55.57
71948;BME280;63257;55.082;38.772;2023-06-10T04:53:03;100403.78;;;13.23;55.31
71948;BME280;63257;55.082;38.772;2023-06-10T04:55:30;100413.84;;;13.32;54.71
71948;BME280;63257;55.082;38.772;2023-06-10T04:57:56;100417.38;;;13.17;55.66
71948;BME280;63257;55.082;38.772;2023-06-10T05:00:23;100416.25;;;13.21;55.63
71948;BME280;63257;55.082;38.772;2023-06-10T05:02:48;100422.50;;;13.20;55.78
71948;BME280;63257;55.082;38.772;2023-06-10T05:05:18;100431.56;;;13.16;55.57
71948;BME280;63257;55.082;38.772;2023-06-10T05:07:44;100412.06;;;13.17;55.23
71948;BME280;63257;55.082;38.772;2023-06-10T05:10:10;100436.28;;;13.43;55.00
71948;BME280;63257;55.082;38.772;2023-06-10T05:12:40;100427.63;;;13.55;55.12
71948;BME280;63257;55.082;38.772;2023-06-10T05:15:07;100408.59;;;13.63;55.15
71948;BME280;63257;55.082;38.772;2023-06-10T05:17:34;100406.84;;;13.78;54.64
71948;BME280;63257;55.082;38.772;2023-06-10T05:20:03;100424.97;;;14.00;54.05
71948;BME280;63257;55.082;38.772;2023-06-10T05:22:32;100434.94;;;14.11;53.28
71948;BME280;63257;55.082;38.772;2023-06-10T05:25:00;100438.34;;;13.98;51.58
71948;BME280;63257;55.082;38.772;2023-06-10T05:27:26;100431.00;;;13.87;51.43
71948;BME280;63257;55.082;38.772;2023-06-10T05:29:52;100437.19;;;13.88;50.92
71948;BME280;63257;55.082;38.772;2023-06-10T05:32:18;100435.47;;;13.72;51.67
71948;BME280;63257;55.082;38.772;2023-06-10T05:34:44;100410.31;;;13.64;51.86
71948;BME280;63257;55.082;38.772;2023-06-10T05:37:11;100436.56;;;13.99;51.67
71948;BME280;63257;55.082;38.772;2023-06-10T05:39:36;100436.47;;;14.15;50.68
71948;BME280;63257;55.082;38.772;2023-06-10T05:42:05;100432.03;;;14.30;51.96
71948;BME280;63257;55.082;38.772;2023-06-10T05:44:32;100424.56;;;14.22;50.86
71948;BME280;63257;55.082;38.772;2023-06-10T05:46:58;100432.53;;;14.36;50.18
71948;BME280;63257;55.082;38.772;2023-06-10T05:49:24;100434.22;;;14.52;50.22
71948;BME280;63257;55.082;38.772;2023-06-10T05:51:50;100433.38;;;14.51;49.60
71948;BME280;63257;55.082;38.772;2023-06-10T05:54:19;100441.72;;;14.45;49.04
71948;BME280;63257;55.082;38.772;2023-06-10T05:56:45;100411.84;;;14.27;50.63
71948;BME280;63257;55.082;38.772;2023-06-10T05:59:12;100434.06;;;14.55;50.77
71948;BME280;63257;55.082;38.772;2023-06-10T06:01:38;100432.72;;;14.62;49.56
71948;BME280;63257;55.082;38.772;2023-06-10T06:04:05;100438.59;;;14.53;48.30
71948;BME280;63257;55.082;38.772;2023-06-10T06:06:32;100420.66;;;14.42;48.18
71948;BME280;63257;55.082;38.772;2023-06-10T06:08:58;100453.22;;;14.46;48.24
71948;BME280;63257;55.082;38.772;2023-06-10T06:11:24;100444.47;;;14.43;48.34
71948;BME280;63257;55.082;38.772;2023-06-10T06:13:51;100444.84;;;14.52;47.91
71948;BME280;63257;55.082;38.772;2023-06-10T06:16:17;100446.94;;;14.61;48.46
71948;BME280;63257;55.082;38.772;2023-06-10T06:18:44;100433.69;;;14.75;48.78
71948;BME280;63257;55.082;38.772;2023-06-10T06:21:10;100440.41;;;14.81;48.25
71948;BME280;63257;55.082;38.772;2023-06-10T06:23:36;100447.50;;;14.95;48.11
71948;BME280;63257;55.082;38.772;2023-06-10T06:26:01;100457.88;;;14.85;47.54
71948;BME280;63257;55.082;38.772;2023-06-10T06:28:27;100447.88;;;14.89;47.47
71948;BME280;63257;55.082;38.772;2023-06-10T06:30:56;100451.47;;;15.02;47.75
71948;BME280;63257;55.082;38.772;2023-06-10T06:33:23;100450.22;;;15.08;46.62
71948;BME280;63257;55.082;38.772;2023-06-10T06:35:49;100448.66;;;14.91;45.90
71948;BME280;63257;55.082;38.772;2023-06-10T06:38:15;100449.91;;;14.85;44.24
71948;BME280;63257;55.082;38.772;2023-06-10T06:40:41;100470.09;;;15.02;44.48
71948;BME280;63257;55.082;38.772;2023-06-10T06:43:07;100470.84;;;15.04;45.45
71948;BME280;63257;55.082;38.772;2023-06-10T06:45:49;100463.81;;;15.03;45.47
71948;BME280;63257;55.082;38.772;2023-06-10T06:48:15;100444.66;;;14.98;44.93
71948;BME280;63257;55.082;38.772;2023-06-10T06:50:41;100457.53;;;15.19;45.00
71948;BME280;63257;55.082;38.772;2023-06-10T06:53:07;100445.97;;;15.33;43.84
71948;BME280;63257;55.082;38.772;2023-06-10T06:55:33;100441.31;;;15.36;43.18
71948;BME280;63257;55.082;38.772;2023-06-10T06:57:59;100461.50;;;15.53;43.63
71948;BME280;63257;55.082;38.772;2023-06-10T07:00:28;100463.38;;;15.78;43.04
71948;BME280;63257;55.082;38.772;2023-06-10T07:02:54;100422.00;;;15.87;43.46
71948;BME280;63257;55.082;38.772;2023-06-10T07:09:45;100486.03;;;15.99;43.81
71948;BME280;63257;55.082;38.772;2023-06-10T07:12:11;100493.50;;;15.79;43.36
71948;BME280;63257;55.082;38.772;2023-06-10T07:14:37;100478.97;;;15.85;42.87
71948;BME280;63257;55.082;38.772;2023-06-10T07:17:03;100471.78;;;15.45;41.57
71948;BME280;63257;55.082;38.772;2023-06-10T07:19:28;100498.13;;;15.35;40.21
71948;BME280;63257;55.082;38.772;2023-06-10T07:21:54;100485.06;;;15.45;40.48
71948;BME280;63257;55.082;38.772;2023-06-10T07:24:21;100495.97;;;15.55;39.82
71948;BME280;63257;55.082;38.772;2023-06-10T07:26:47;100491.91;;;15.76;40.65
71948;BME280;63257;55.082;38.772;2023-06-10T07:29:13;100485.06;;;15.72;38.73
71948;BME280;63257;55.082;38.772;2023-06-10T07:31:41;100487.56;;;16.16;38.44
71948;BME280;63257;55.082;38.772;2023-06-10T07:34:07;100484.16;;;16.52;38.72
71948;BME280;63257;55.082;38.772;2023-06-10T07:36:33;100511.13;;;16.48;38.35
71948;BME280;63257;55.082;38.772;2023-06-10T07:38:59;100501.00;;;16.27;39.11
71948;BME280;63257;55.082;38.772;2023-06-10T07:41:28;100488.06;;;16.21;37.91
71948;BME280;63257;55.082;38.772;2023-06-10T07:43:57;100483.41;;;16.63;37.93
71948;BME280;63257;55.082;38.772;2023-06-10T07:46:24;100482.34;;;16.66;36.55
71948;BME280;63257;55.082;38.772;2023-06-10T07:48:51;100491.28;;;16.65;36.93
71948;BME280;63257;55.082;38.772;2023-06-10T07:51:17;100488.19;;;16.58;38.39
71948;BME280;63257;55.082;38.772;2023-06-10T07:53:43;100487.88;;;16.75;38.62
71948;BME280;63257;55.082;38.772;2023-06-10T07:56:09;100487.03;;;16.75;38.79
71948;BME280;63257;55.082;38.772;2023-06-10T07:58:35;100513.34;;;16.54;35.13
71948;BME280;63257;55.082;38.772;2023-06-10T08:01:00;100511.22;;;16.33;35.73
71948;BME280;63257;55.082;38.772;2023-06-10T08:03:27;100499.81;;;16.31;36.30
71948;BME280;63257;55.082;38.772;2023-06-10T08:05:54;100508.88;;;16.67;37.78
71948;BME280;63257;55.082;38.772;2023-06-10T08:08:20;100510.47;;;16.83;38.31
71948;BME280;63257;55.082;38.772;2023-06-10T08:10:46;100505.47;;;17.04;35.95
71948;BME280;63257;55.082;38.772;2023-06-10T08:13:12;100508.66;;;16.83;36.63
71948;BME280;63257;55.082;38.772;2023-06-10T08:15:38;100498.13;;;16.56;37.18
71948;BME280;63257;55.082;38.772;2023-06-10T08:18:04;100516.25;;;16.76;36.11
71948;BME280;63257;55.082;38.772;2023-06-10T08:20:30;100517.94;;;16.77;35.61
71948;BME280;63257;55.082;38.772;2023-06-10T08:22:57;100518.34;;;17.10;35.77
71948;BME280;63257;55.082;38.772;2023-06-10T08:25:24;100503.94;;;16.87;35.53
71948;BME280;63257;55.082;38.772;2023-06-10T08:27:50;100519.00;;;16.62;35.10
71948;BME280;63257;55.082;38.772;2023-06-10T08:30:18;100524.53;;;16.59;35.30
71948;BME280;63257;55.082;38.772;2023-06-10T08:32:44;100541.81;;;16.66;35.36
71948;BME280;63257;55.082;38.772;2023-06-10T08:35:10;100521.78;;;16.73;36.28
71948;BME280;63257;55.082;38.772;2023-06-10T08:37:36;100526.69;;;16.67;36.75
71948;BME280;63257;55.082;38.772;2023-06-10T08:40:02;100537.25;;;16.68;36.91
71948;BME280;63257;55.082;38.772;2023-06-10T08:49:38;100510.63;;;17.79;35.81
71948;BME280;63257;55.082;38.772;2023-06-10T08:52:07;100508.84;;;17.43;35.29
71948;BME280;63257;55.082;38.772;2023-06-10T08:54:34;100514.91;;;17.21;33.50
71948;BME280;63257;55.082;38.772;2023-06-10T08:57:06;100516.66;;;16.96;33.96
71948;BME280;63257;55.082;38.772;2023-06-10T08:59:32;100514.66;;;17.00;35.15
71948;BME280;63257;55.082;38.772;2023-06-10T09:01:58;100512.34;;;17.56;34.54
71948;BME280;63257;55.082;38.772;2023-06-10T09:04:27;100511.31;;;17.70;34.79
71948;BME280;63257;55.082;38.772;2023-06-10T09:06:53;100483.63;;;17.60;34.16
71948;BME280;63257;55.082;38.772;2023-06-10T09:09:19;100514.81;;;17.71;35.34
71948;BME280;63257;55.082;38.772;2023-06-10T09:11:46;100508.56;;;16.85;35.79
71948;BME280;63257;55.082;38.772;2023-06-10T09:14:11;100499.28;;;16.65;36.39
71948;BME280;63257;55.082;38.772;2023-06-10T09:16:39;100512.16;;;17.09;36.24
71948;BME280;63257;55.082;38.772;2023-06-10T09:19:05;100514.00;;;16.96;35.75
71948;BME280;63257;55.082;38.772;2023-06-10T09:21:36;100505.56;;;16.76;35.54
71948;BME280;63257;55.082;38.772;2023-06-10T09:24:06;100519.31;;;16.83;35.56
71948;BME280;63257;55.082;38.772;2023-06-10T09:26:31;100502.25;;;16.99;34.98
71948;BME280;63257;55.082;38.772;2023-06-10T09:29:04;100504.00;;;17.37;34.64
71948;BME280;63257;55.082;38.772;2023-06-10T09:31:40;100506.66;;;17.61;33.36
71948;BME280;63257;55.082;38.772;2023-06-10T09:37:38;100496.31;;;17.80;33.33
71948;BME280;63257;55.082;38.772;2023-06-10T09:40:06;100506.66;;;17.85;35.22
71948;BME280;63257;55.082;38.772;2023-06-10T09:42:33;100502.28;;;18.08;33.43
71948;BME280;63257;55.082;38.772;2023-06-10T09:45:03;100522.16;;;18.40;33.21
71948;BME280;63257;55.082;38.772;2023-06-10T09:47:34;100525.16;;;18.00;31.63
71948;BME280;63257;55.082;38.772;2023-06-10T09:50:00;100530.63;;;17.98;32.99
71948;BME280;63257;55.082;38.772;2023-06-10T09:52:30;100523.22;;;17.77;32.31
71948;BME280;63257;55.082;38.772;2023-06-10T09:55:00;100521.84;;;17.85;33.28
71948;BME280;63257;55.082;38.772;2023-06-10T09:57:31;100520.84;;;18.10;33.17
71948;BME280;63257;55.082;38.772;2023-06-10T09:59:58;100523.16;;;18.14;32.36
71948;BME280;63257;55.082;38.772;2023-06-10T10:02:24;100524.97;;;18.03;32.72
71948;BME280;63257;55.082;38.772;2023-06-10T10:04:49;100526.94;;;18.81;29.91
71948;BME280;63257;55.082;38.772;2023-06-10T10:07:15;100522.09;;;18.75;29.75
71948;BME280;63257;55.082;38.772;2023-06-10T10:09:42;100530.81;;;18.66;31.03
71948;BME280;63257;55.082;38.772;2023-06-10T10:12:13;100529.22;;;17.81;33.29
71948;BME280;63257;55.082;38.772;2023-06-10T10:14:46;100516.72;;;17.57;33.58
71948;BME280;63257;55.082;38.772;2023-06-10T10:17:15;100532.72;;;18.30;32.96
71948;BME280;63257;55.082;38.772;2023-06-10T10:19:49;100527.19;;;18.20;33.00
71948;BME280;63257;55.082;38.772;2023-06-10T10:22:26;100533.00;;;18.14;33.09
71948;BME280;63257;55.082;38.772;2023-06-10T10:24:57;100527.50;;;17.80;32.28
71948;BME280;63257;55.082;38.772;2023-06-10T10:27:36;100529.44;;;17.54;33.00
71948;BME280;63257;55.082;38.772;2023-06-10T10:30:05;100502.38;;;17.83;33.17
71948;BME280;63257;55.082;38.772;2023-06-10T10:32:45;100523.75;;;18.42;32.53
71948;BME280;63257;55.082;38.772;2023-06-10T10:35:21;100535.56;;;18.16;33.20
71948;BME280;63257;55.082;38.772;2023-06-10T10:38:15;100500.97;;;18.14;33.32
71948;BME280;63257;55.082;38.772;2023-06-10T10:40:41;100504.81;;;17.99;33.30
71948;BME280;63257;55.082;38.772;2023-06-10T10:43:08;100538.53;;;17.75;33.40
71948;BME280;63257;55.082;38.772;2023-06-10T10:45:59;100535.28;;;18.07;33.52
71948;BME280;63257;55.082;38.772;2023-06-10T10:48:26;100526.94;;;18.70;33.74
71948;BME280;63257;55.082;38.772;2023-06-10T10:50:58;100529.72;;;19.37;31.13
71948;BME280;63257;55.082;38.772;2023-06-10T10:53:24;100522.19;;;19.42;30.54
71948;BME280;63257;55.082;38.772;2023-06-10T11:00:03;100523.69;;;20.32;29.00
71948;BME280;63257;55.082;38.772;2023-06-10T11:02:44;100528.94;;;19.57;28.85
71948;BME280;63257;55.082;38.772;2023-06-10T11:05:12;100524.00;;;19.41;27.90
71948;BME280;63257;55.082;38.772;2023-06-10T11:07:39;100535.72;;;19.06;29.19
71948;BME280;63257;55.082;38.772;2023-06-10T11:10:12;100548.41;;;18.10;30.89
71948;BME280;63257;55.082;38.772;2023-06-10T11:15:28;100546.59;;;18.11;31.21
71948;BME280;63257;55.082;38.772;2023-06-10T11:24:52;100524.66;;;20.73;27.13
71948;BME280;63257;55.082;38.772;2023-06-10T11:27:25;100513.97;;;21.24;25.87
71948;BME280;63257;55.082;38.772;2023-06-10T11:30:28;100533.47;;;22.06;25.92
71948;BME280;63257;55.082;38.772;2023-06-10T11:33:07;100550.03;;;20.27;25.79
71948;BME280;63257;55.082;38.772;2023-06-10T11:39:53;100551.97;;;18.69;29.02
71948;BME280;63257;55.082;38.772;2023-06-10T11:42:19;100552.31;;;19.66;27.54
71948;BME280;63257;55.082;38.772;2023-06-10T11:44:52;100530.72;;;20.12;26.94
71948;BME280;63257;55.082;38.772;2023-06-10T11:47:19;100546.88;;;20.64;25.52
71948;BME280;63257;55.082;38.772;2023-06-10T11:49:49;100533.31;;;21.17;25.46
71948;BME280;63257;55.082;38.772;2023-06-10T11:52:28;100510.16;;;20.64;24.63
71948;BME280;63257;55.082;38.772;2023-06-10T11:59:54;100548.03;;;21.33;23.93
71948;BME280;63257;55.082;38.772;2023-06-10T12:02:57;100549.75;;;21.34;23.80
71948;BME280;63257;55.082;38.772;2023-06-10T12:09:44;100549.88;;;20.07;26.01
71948;BME280;63257;55.082;38.772;2023-06-10T12:12:10;100552.09;;;20.87;25.12
